.
WxDataArchive / Data Records for 2014-11-26
2014-11-25 November 2014 2014-11-27

Data Records for Wednesday, 26 November 2014

Time	Temp	Chill	HIndex	Humid	Dewpt	 Wind 	HiWind	WindDir	Rain 	Barom
-----	----	-----	------	-----	-----	------	------	-------	-----	-----
00:00	25.6	25.6	25.6	76	19.1	0	2	292	0.00	30.228 
00:05	25.6	25.6	25.6	77	19.4	0	2	292	0.00	30.228 
00:10	25.6	25.6	25.6	77	19.4	0	0	---	0.00	30.228 
00:15	25.6	25.6	25.6	77	19.4	0	1	292	0.00	30.221 
00:20	25.6	25.6	25.6	77	19.4	0	1	292	0.00	30.221 
00:25	25.4	25.4	25.4	77	19.2	0	0	---	0.00	30.221 
00:30	25.4	25.4	25.4	77	19.2	0	0	---	0.00	30.222 
00:35	25.6	25.6	25.6	77	19.4	0	1	292	0.00	30.222 
00:40	25.6	25.6	25.6	77	19.4	0	0	---	0.00	30.222 
00:45	25.6	25.6	25.6	77	19.4	0	0	---	0.00	30.219 
00:50	25.6	25.6	25.6	77	19.4	0	0	---	0.00	30.219 
00:55	25.6	25.6	25.6	77	19.4	0	0	---	0.00	30.219 
01:00	25.6	25.6	25.6	77	19.4	0	0	---	0.00	30.205 
01:05	25.6	25.6	25.6	77	19.4	0	0	---	0.00	30.205 
01:10	25.4	25.4	25.4	77	19.2	0	1	292	0.00	30.205 
01:15	25.4	25.4	25.4	77	19.2	0	0	---	0.00	30.204 
01:20	25.4	25.4	25.4	77	19.2	0	0	---	0.00	30.204 
01:25	25.4	25.4	25.4	77	19.2	0	1	292	0.00	30.204 
01:30	25.4	25.4	25.4	77	19.2	0	0	---	0.00	30.197 
01:35	25.3	25.3	25.3	77	19.1	0	1	292	0.00	30.197 
01:40	25.3	25.3	25.3	77	19.1	0	2	292	0.00	30.197 
01:45	25.1	25.1	25.1	77	18.9	0	2	292	0.00	30.191 
01:50	25.1	25.1	25.1	77	18.9	0	1	292	0.00	30.191 
01:55	25.1	25.1	25.1	77	18.9	0	1	292	0.00	30.191 
02:00	25.1	25.1	25.1	78	19.2	0	1	292	0.00	30.190 
02:05	25.1	25.1	25.1	78	19.2	0	1	292	0.00	30.190 
02:10	25.1	25.1	25.1	78	19.2	0	1	292	0.00	30.190 
02:15	25.1	25.1	25.1	78	19.2	0	2	292	0.00	30.192 
02:20	25.1	25.1	25.1	78	19.2	0	0	---	0.00	30.192 
02:25	25.0	25.0	25.0	78	19.1	0	0	---	0.00	30.192 
02:30	25.1	25.1	25.1	78	19.2	0	1	292	0.00	30.195 
02:35	25.1	25.1	25.1	78	19.2	0	1	292	0.00	30.195 
02:40	25.1	25.1	25.1	78	19.2	0	1	292	0.00	30.195 
02:45	25.0	25.0	25.0	78	19.1	0	1	292	0.00	30.203 
02:50	25.0	25.0	25.0	78	19.1	0	1	292	0.00	30.203 
02:55	24.8	24.8	24.8	78	18.9	0	1	292	0.00	30.203 
03:00	24.7	24.7	24.7	78	18.8	0	0	---	0.00	30.206 
03:05	24.7	24.7	24.7	78	18.8	0	1	292	0.00	30.206 
03:10	24.7	24.7	24.7	78	18.8	0	0	---	0.00	30.206 
03:15	24.7	24.7	24.7	78	18.8	0	0	---	0.00	30.206 
03:20	24.7	24.7	24.7	78	18.8	0	1	292	0.00	30.206 
03:25	24.7	24.7	24.7	78	18.8	0	1	292	0.00	30.206 
03:30	24.8	24.8	24.8	78	18.9	0	0	---	0.00	30.199 
03:35	24.8	24.8	24.8	78	18.9	0	0	---	0.00	30.199 
03:40	24.8	24.8	24.8	79	19.2	0	0	---	0.00	30.199 
03:45	24.8	24.8	24.8	79	19.2	0	0	---	0.00	30.191 
03:50	25.0	25.0	25.0	79	19.4	0	0	---	0.00	30.191 
03:55	25.0	25.0	25.0	79	19.4	0	1	292	0.00	30.191 
04:00	25.0	25.0	25.0	79	19.4	0	1	292	0.00	30.191 
04:05	25.0	25.0	25.0	79	19.4	0	1	292	0.00	30.191 
04:10	25.0	25.0	25.0	79	19.4	0	1	292	0.00	30.191 
04:15	25.0	25.0	25.0	79	19.4	0	1	292	0.00	30.193 
04:20	25.0	25.0	25.0	79	19.4	0	0	---	0.00	30.193 
04:25	25.1	25.1	25.1	79	19.5	0	2	292	0.00	30.193 
04:30	25.1	25.1	25.1	79	19.5	0	0	---	0.00	30.195 
04:35	25.1	25.1	25.1	80	19.8	0	2	292	0.00	30.195 
04:40	25.1	25.1	25.1	79	19.5	0	1	292	0.00	30.195 
04:45	25.1	25.1	25.1	79	19.5	0	1	292	0.00	30.194 
04:50	25.1	25.1	25.1	79	19.5	0	1	292	0.00	30.194 
04:55	25.3	25.3	25.3	80	20.0	0	1	292	0.00	30.194 
05:00	25.3	25.3	25.3	80	20.0	0	1	292	0.00	30.190 
05:05	25.3	25.3	25.3	80	20.0	0	1	292	0.00	30.190 
05:10	25.1	25.1	25.1	80	19.8	0	2	292	0.00	30.190 
05:15	25.1	25.1	25.1	79	19.5	2	5	90	0.00	30.189 
05:20	25.0	25.0	25.0	79	19.4	0	3	90	0.00	30.189 
05:25	25.0	25.0	25.0	79	19.4	0	0	---	0.00	30.189 
05:30	25.0	25.0	25.0	79	19.4	0	0	---	0.00	30.190 
05:35	25.0	25.0	25.0	79	19.4	0	2	90	0.00	30.190 
05:40	25.0	25.0	25.0	79	19.4	0	2	90	0.00	30.190 
05:45	25.0	25.0	25.0	79	19.4	0	0	---	0.00	30.189 
05:50	25.0	25.0	25.0	79	19.4	0	0	---	0.00	30.189 
05:55	25.1	25.1	25.1	79	19.5	0	1	90	0.00	30.189 
06:00	25.1	25.1	25.1	79	19.5	0	1	90	0.00	30.185 
06:05	25.1	25.1	25.1	79	19.5	0	1	90	0.00	30.185 
06:10	25.1	25.1	25.1	79	19.5	0	1	90	0.00	30.185 
06:15	25.1	25.1	25.1	80	19.8	0	3	90	0.00	30.179 
06:20	25.1	25.1	25.1	80	19.8	0	1	90	0.00	30.179 
06:25	25.3	25.3	25.3	80	20.0	0	0	---	0.00	30.179 
06:30	25.3	25.3	25.3	80	20.0	0	2	90	0.00	30.179 
06:35	25.3	25.3	25.3	79	19.7	0	2	90	0.00	30.179 
06:40	25.4	25.4	25.4	79	19.8	1	3	90	0.00	30.179 
06:45	25.4	25.4	25.4	79	19.8	0	0	---	0.00	30.176 
06:50	25.4	25.4	25.4	79	19.8	0	1	90	0.00	30.176 
06:55	25.4	25.4	25.4	79	19.8	0	1	90	0.00	30.176 
07:00	25.4	25.4	25.4	79	19.8	0	1	90	0.00	30.177 
07:05	25.6	25.6	25.6	79	20.0	0	1	90	0.00	30.177 
07:10	25.6	25.6	25.6	80	20.3	0	2	90	0.00	30.177 
07:15	25.7	25.7	25.7	79	20.1	0	1	90	0.00	30.176 
07:20	25.7	25.7	25.7	79	20.1	0	1	90	0.00	30.176 
07:25	25.7	25.7	25.7	79	20.1	0	1	90	0.00	30.176 
07:30	25.7	25.7	25.7	79	20.1	0	1	90	0.00	30.174 
07:35	25.7	25.7	25.7	79	20.1	1	3	90	0.00	30.174 
07:40	25.7	25.7	25.7	78	19.8	0	1	90	0.00	30.174 
07:45	25.8	25.8	25.8	78	19.9	0	3	90	0.00	30.175 
07:50	25.8	25.8	25.8	78	19.9	0	1	90	0.00	30.175 
07:55	26.0	26.0	26.0	78	20.1	0	3	90	0.00	30.175 
08:00	26.0	26.0	26.0	77	19.8	1	4	68	0.00	30.180 
08:05	26.0	26.0	26.0	77	19.8	1	3	68	0.00	30.180 
08:10	26.0	26.0	26.0	77	19.8	0	1	68	0.00	30.180 
08:15	26.1	26.1	26.1	77	19.9	0	2	68	0.00	30.179 
08:20	26.1	26.1	26.1	77	19.9	1	3	68	0.00	30.179 
08:25	26.1	26.1	26.1	77	19.9	1	4	135	0.00	30.179 
08:30	26.3	26.3	26.3	76	19.8	0	2	135	0.00	30.186 
08:35	26.3	26.3	26.3	76	19.8	1	4	112	0.00	30.186 
08:40	26.3	26.3	26.3	75	19.5	1	3	112	0.00	30.186 
08:45	26.3	26.3	26.3	76	19.8	1	3	90	0.00	30.182 
08:50	26.3	26.3	26.3	76	19.8	0	2	90	0.00	30.182 
08:55	26.4	26.4	26.4	75	19.6	1	4	90	0.00	30.182 
09:00	26.4	26.4	26.4	75	19.6	2	4	112	0.00	30.178 
09:05	26.4	26.4	26.4	74	19.3	1	4	112	0.00	30.178 
09:10	26.4	26.4	26.4	74	19.3	0	2	112	0.00	30.178 
09:15	26.6	26.6	26.6	75	19.8	1	4	112	0.00	30.185 
09:20	26.7	26.7	26.7	74	19.5	1	4	90	0.00	30.185 
09:25	26.7	26.7	26.7	75	19.9	1	5	90	0.00	30.185 
09:30	26.9	26.9	26.9	74	19.7	0	3	90	0.00	30.189 
09:35	26.9	26.9	26.9	74	19.7	2	6	90	0.00	30.189 
09:40	26.9	26.9	26.9	74	19.7	1	5	90	0.00	30.189 
09:45	26.9	26.9	26.9	74	19.7	2	4	90	0.00	30.189 
09:50	27.0	27.0	27.0	74	19.8	1	5	90	0.00	30.189 
09:55	27.0	27.0	27.0	74	19.8	1	5	90	0.00	30.189 
10:00	27.0	27.0	27.0	74	19.8	1	4	90	0.00	30.190 
10:05	27.0	27.0	27.0	75	20.2	0	2	90	0.00	30.190 
10:10	27.2	27.2	27.2	74	20.0	1	4	112	0.00	30.190 
10:15	27.2	27.2	27.2	75	20.3	1	3	112	0.00	30.191 
10:20	27.2	27.2	27.2	74	20.0	1	3	90	0.00	30.191 
10:25	27.2	27.2	27.2	74	20.0	1	4	135	0.00	30.191 
10:30	27.3	27.3	27.3	75	20.4	0	2	135	0.00	30.184 
10:35	27.3	27.3	27.3	74	20.1	1	4	135	0.00	30.184 
10:40	27.3	27.3	27.3	75	20.4	1	3	112	0.00	30.184 
10:45	27.5	27.5	27.5	75	20.6	1	3	112	0.00	30.178 
10:50	27.5	27.5	27.5	74	20.3	2	5	112	0.00	30.178 
10:55	27.5	27.5	27.5	73	20.0	1	4	112	0.00	30.178 
11:00	27.5	27.5	27.5	73	20.0	1	4	112	0.00	30.177 
11:05	27.6	27.6	27.6	73	20.1	1	3	112	0.00	30.177 
11:10	27.8	27.8	27.8	73	20.3	1	4	112	0.00	30.177 
11:15	27.8	27.8	27.8	73	20.3	3	7	112	0.00	30.170 
11:20	27.6	27.6	27.6	74	20.4	2	5	90	0.00	30.170 
11:25	27.8	27.8	27.8	74	20.6	1	4	68	0.00	30.170 
11:30	27.8	27.8	27.8	74	20.6	2	4	68	0.00	30.158 
11:35	27.9	27.9	27.9	73	20.4	2	4	112	0.00	30.158 
11:40	27.9	27.9	27.9	73	20.4	1	3	112	0.00	30.158 
11:45	27.9	27.9	27.9	73	20.4	1	3	112	0.00	30.155 
11:50	27.9	27.9	27.9	72	20.1	1	3	112	0.00	30.155 
11:55	28.1	28.1	28.1	72	20.3	1	4	90	0.00	30.155 
12:00	28.2	28.2	28.2	72	20.4	0	2	90	0.00	30.148 
12:05	28.2	28.2	28.2	72	20.4	0	1	90	0.00	30.148 
12:10	28.2	28.2	28.2	71	20.0	0	1	90	0.00	30.148 
12:15	28.2	28.2	28.2	71	20.0	1	4	90	0.00	30.131 
12:20	28.2	28.2	28.2	71	20.0	1	4	112	0.00	30.131 
12:25	28.1	28.1	28.1	72	20.3	1	3	112	0.00	30.131 
12:30	28.2	28.2	28.2	71	20.0	1	5	90	0.00	30.125 
12:35	28.2	28.2	28.2	72	20.4	1	4	90	0.00	30.125 
12:40	28.4	28.4	28.4	71	20.2	0	3	135	0.00	30.125 
12:45	28.5	28.5	28.5	71	20.3	1	4	90	0.00	30.123 
12:50	28.5	28.5	28.5	71	20.3	1	5	90	0.00	30.123 
12:55	28.7	28.7	28.7	71	20.5	1	2	90	0.00	30.123 
13:00	28.8	28.8	28.8	70	20.3	0	3	90	0.00	30.114 
13:05	29.0	29.0	29.0	70	20.5	1	3	90	0.00	30.114 
13:10	29.0	29.0	29.0	70	20.5	1	5	90	0.00	30.114 
13:15	29.0	29.0	29.0	69	20.1	1	4	112	0.00	30.113 
13:20	29.0	29.0	29.0	70	20.5	1	4	112	0.00	30.113 
13:25	28.8	28.8	28.8	69	19.9	2	5	112	0.00	30.113 
13:30	28.7	28.7	28.7	70	20.2	1	4	90	0.00	30.112 
13:35	28.8	28.8	28.8	70	20.3	1	3	90	0.00	30.112 
13:40	29.0	29.0	29.0	69	20.1	1	3	90	0.00	30.112 
13:45	29.0	29.0	29.0	70	20.5	0	2	90	0.00	30.112 
13:50	29.1	29.1	29.1	70	20.6	0	2	90	0.00	30.112 
13:55	29.0	29.0	29.0	70	20.5	0	2	90	0.00	30.112 
14:00	29.0	29.0	29.0	71	20.8	0	1	90	0.00	30.117 
14:05	29.1	29.1	29.1	72	21.2	0	2	90	0.00	30.117 
14:10	29.1	29.1	29.1	72	21.2	0	1	90	0.00	30.117 
14:15	29.1	29.1	29.1	71	20.9	0	3	90	0.00	30.117 
14:20	29.0	29.0	29.0	71	20.8	0	1	90	0.00	30.117 
14:25	29.0	29.0	29.0	71	20.8	0	1	90	0.00	30.117 
14:30	29.0	29.0	29.0	71	20.8	0	1	90	0.00	30.114 
14:35	29.1	29.1	29.1	71	20.9	0	1	90	0.00	30.114 
14:40	29.1	29.1	29.1	71	20.9	0	1	90	0.00	30.114 
14:45	29.1	29.1	29.1	71	20.9	0	1	90	0.00	30.113 
14:50	29.3	29.3	29.3	72	21.4	0	0	---	0.00	30.113 
14:55	29.4	29.4	29.4	71	21.2	0	0	---	0.00	30.113 
15:00	29.4	29.4	29.4	71	21.2	0	0	---	0.00	30.112 
15:05	29.4	29.4	29.4	71	21.2	0	1	90	0.00	30.112 
15:10	29.4	29.4	29.4	70	20.8	0	0	---	0.00	30.112 
15:15	29.3	29.3	29.3	70	20.8	0	1	90	0.00	30.110 
15:20	29.1	29.1	29.1	70	20.6	0	0	---	0.00	30.110 
15:25	29.1	29.1	29.1	70	20.6	0	0	---	0.00	30.110 
15:30	29.1	29.1	29.1	71	20.9	0	0	---	0.00	30.111 
15:35	29.1	29.1	29.1	71	20.9	0	1	90	0.00	30.111 
15:40	29.1	29.1	29.1	71	20.9	0	0	---	0.00	30.111 
15:45	29.0	29.0	29.0	71	20.8	0	0	---	0.00	30.112 
15:50	29.0	29.0	29.0	70	20.5	0	1	90	0.00	30.112 
15:55	29.0	29.0	29.0	70	20.5	0	0	---	0.00	30.112 
16:00	29.0	29.0	29.0	71	20.8	0	0	---	0.00	30.111 
16:05	29.0	29.0	29.0	71	20.8	0	0	---	0.00	30.111 
16:10	29.0	29.0	29.0	71	20.8	0	1	90	0.00	30.111 
16:15	29.0	29.0	29.0	71	20.8	0	0	---	0.00	30.111 
16:20	29.0	29.0	29.0	71	20.8	0	0	---	0.00	30.111 
16:25	28.8	28.8	28.8	71	20.6	0	1	90	0.00	30.111 
16:30	28.8	28.8	28.8	71	20.6	0	0	---	0.00	30.113 
16:35	28.8	28.8	28.8	71	20.6	0	0	---	0.00	30.113 
16:40	28.8	28.8	28.8	71	20.6	0	0	---	0.00	30.113 
16:45	28.8	28.8	28.8	71	20.6	0	1	90	0.00	30.112 
16:50	28.8	28.8	28.8	70	20.3	0	1	90	0.00	30.112 
16:55	28.8	28.8	28.8	71	20.6	0	2	90	0.00	30.112 
17:00	28.8	28.8	28.8	71	20.6	0	0	---	0.00	30.112 
17:05	28.8	28.8	28.8	71	20.6	0	0	---	0.00	30.112 
17:10	28.7	28.7	28.7	71	20.5	0	0	---	0.00	30.112 
17:15	28.8	28.8	28.8	71	20.6	0	0	---	0.00	30.110 
17:20	28.8	28.8	28.8	71	20.6	0	0	---	0.00	30.110 
17:25	28.7	28.7	28.7	71	20.5	0	0	---	0.00	30.110 
17:30	28.7	28.7	28.7	71	20.5	0	0	---	0.00	30.111 
17:35	28.7	28.7	28.7	72	20.8	0	0	---	0.00	30.111 
17:40	28.7	28.7	28.7	72	20.8	0	2	90	0.00	30.111 
17:45	28.8	28.8	28.8	72	20.9	0	0	---	0.00	30.101 
17:50	28.8	28.8	28.8	72	20.9	0	1	90	0.00	30.101 
17:55	28.8	28.8	28.8	72	20.9	0	0	---	0.00	30.101 
18:00	28.8	28.8	28.8	72	20.9	0	0	---	0.00	30.097 
18:05	28.8	28.8	28.8	73	21.3	0	0	---	0.00	30.097 
18:10	28.8	28.8	28.8	73	21.3	0	0	---	0.00	30.097 
18:15	28.8	28.8	28.8	73	21.3	0	0	---	0.00	30.099 
18:20	28.7	28.7	28.7	73	21.2	0	0	---	0.00	30.099 
18:25	28.7	28.7	28.7	73	21.2	0	0	---	0.00	30.099 
18:30	28.7	28.7	28.7	73	21.2	0	0	---	0.00	30.096 
18:35	28.7	28.7	28.7	73	21.2	0	0	---	0.00	30.096 
18:40	28.7	28.7	28.7	73	21.2	0	0	---	0.00	30.096 
18:45	28.7	28.7	28.7	73	21.2	0	0	---	0.00	30.096 
18:50	28.7	28.7	28.7	73	21.2	0	0	---	0.00	30.096 
18:55	28.7	28.7	28.7	73	21.2	0	0	---	0.00	30.096 
19:00	28.8	28.8	28.8	73	21.3	0	0	---	0.00	30.097 
19:05	28.8	28.8	28.8	73	21.3	0	0	---	0.00	30.097 
19:10	28.8	28.8	28.8	74	21.6	0	0	---	0.00	30.097 
19:15	28.8	28.8	28.8	74	21.6	0	0	---	0.00	30.102 
19:20	28.8	28.8	28.8	73	21.3	0	0	---	0.00	30.102 
19:25	28.8	28.8	28.8	74	21.6	0	0	---	0.00	30.102 
19:30	28.8	28.8	28.8	74	21.6	0	0	---	0.00	30.105 
19:35	28.8	28.8	28.8	74	21.6	0	0	---	0.00	30.105 
19:40	28.8	28.8	28.8	74	21.6	0	0	---	0.00	30.105 
19:45	28.8	28.8	28.8	75	21.9	0	0	---	0.00	30.103 
19:50	28.8	28.8	28.8	75	21.9	0	0	---	0.00	30.103 
19:55	28.8	28.8	28.8	75	21.9	0	0	---	0.00	30.103 
20:00	28.8	28.8	28.8	75	21.9	0	1	90	0.00	30.102 
20:05	28.8	28.8	28.8	75	21.9	0	0	---	0.00	30.102 
20:10	28.8	28.8	28.8	75	21.9	0	0	---	0.00	30.102 
20:15	28.8	28.8	28.8	75	21.9	0	0	---	0.00	30.107 
20:20	29.0	29.0	29.0	75	22.1	0	1	90	0.00	30.107 
20:25	29.0	29.0	29.0	75	22.1	0	0	---	0.00	30.107 
20:30	29.0	29.0	29.0	74	21.8	0	1	90	0.00	30.107 
20:35	29.0	29.0	29.0	74	21.8	0	1	90	0.00	30.107 
20:40	29.0	29.0	29.0	74	21.8	0	1	90	0.00	30.107 
20:45	29.0	29.0	29.0	74	21.8	0	1	90	0.00	30.102 
20:50	29.0	29.0	29.0	74	21.8	0	1	90	0.00	30.102 
20:55	29.0	29.0	29.0	74	21.8	0	1	90	0.00	30.102 
21:00	29.0	29.0	29.0	74	21.8	0	1	90	0.00	30.107 
21:05	28.8	28.8	28.8	75	21.9	0	1	90	0.00	30.107 
21:10	28.8	28.8	28.8	74	21.6	0	3	90	0.00	30.107 
21:15	28.8	28.8	28.8	74	21.6	0	2	90	0.00	30.108 
21:20	28.7	28.7	28.7	75	21.8	0	1	90	0.00	30.108 
21:25	28.7	28.7	28.7	75	21.8	0	1	90	0.00	30.108 
21:30	28.7	28.7	28.7	75	21.8	0	1	90	0.00	30.109 
21:35	28.7	28.7	28.7	75	21.8	0	0	---	0.00	30.109 
21:40	28.7	28.7	28.7	75	21.8	0	1	90	0.00	30.109 
21:45	28.7	28.7	28.7	75	21.8	0	2	90	0.00	30.109 
21:50	28.7	28.7	28.7	75	21.8	0	2	90	0.00	30.109 
21:55	28.7	28.7	28.7	75	21.8	0	1	90	0.00	30.109 
22:00	28.5	28.5	28.5	75	21.6	0	1	90	0.00	30.111 
22:05	28.5	28.5	28.5	75	21.6	0	1	90	0.00	30.111 
22:10	28.5	28.5	28.5	75	21.6	0	2	90	0.00	30.111 
22:15	28.5	28.5	28.5	75	21.6	0	1	90	0.00	30.112 
22:20	28.5	28.5	28.5	75	21.6	0	1	90	0.00	30.112 
22:25	28.5	28.5	28.5	75	21.6	0	2	90	0.00	30.112 
22:30	28.5	28.5	28.5	75	21.6	0	3	90	0.00	30.121 
22:35	28.5	28.5	28.5	75	21.6	0	2	90	0.00	30.121 
22:40	28.5	28.5	28.5	76	21.9	0	3	90	0.00	30.121 
22:45	28.5	28.5	28.5	75	21.6	0	3	45	0.00	30.123 
22:50	28.5	28.5	28.5	76	21.9	0	2	315	0.00	30.123 
22:55	28.5	28.5	28.5	75	21.6	0	3	315	0.00	30.123 
23:00	28.5	28.5	28.5	76	21.9	0	1	315	0.00	30.122 
23:05	28.5	28.5	28.5	76	21.9	0	1	315	0.00	30.122 
23:10	28.4	28.4	28.4	76	21.8	0	1	315	0.00	30.122 
23:15	28.4	28.4	28.4	76	21.8	0	2	315	0.00	30.122 
23:20	28.4	28.4	28.4	76	21.8	0	2	315	0.00	30.122 
23:25	28.4	28.4	28.4	76	21.8	0	3	315	0.00	30.122 
23:30	28.4	28.4	28.4	76	21.8	0	1	315	0.00	30.125 
23:35	28.4	28.4	28.4	76	21.8	0	2	315	0.00	30.125 
23:40	28.4	28.4	28.4	76	21.8	0	2	315	0.00	30.125 
23:45	28.4	28.4	28.4	77	22.1	0	2	315	0.00	30.125 
23:50	28.4	28.4	28.4	77	22.1	0	1	315	0.00	30.125 
23:55	28.4	28.4	28.4	77	22.1	1	3	315	0.00	30.125 

CoCoRaHS
IN-AL-39
A2 Web Hosting
Creative Commons License
GoDaddy
search engine by freefind advanced

loaded 2018-11-13 01:38:54 • last modified 2010-11-18 10:43:29
Privacy PolicyDisclaimer
• wx.awcolley.com is powered by PmWiki v.2002016 •
• all content (unless otherwise noted) © 2018 A W Colley